sensor_id;sensor_type;location;lat;lon;timestamp;pressure;altitude;pressure_sealevel;temperature;humidity
11198;BME280;5655;48.744;9.162;2022-08-30T00:02:05;96415.97;;;22.58;nan
11198;BME280;5655;48.744;9.162;2022-08-30T00:04:31;96418.28;;;22.60;nan
11198;BME280;5655;48.744;9.162;2022-08-30T00:06:56;96411.75;;;22.45;nan
11198;BME280;5655;48.744;9.162;2022-08-30T00:09:22;96408.38;;;22.41;nan
11198;BME280;5655;48.744;9.162;2022-08-30T00:11:48;96419.38;;;22.50;nan
11198;BME280;5655;48.744;9.162;2022-08-30T00:14:16;96412.88;;;22.35;nan
11198;BME280;5655;48.744;9.162;2022-08-30T00:16:41;96414.81;;;22.47;nan
11198;BME280;5655;48.744;9.162;2022-08-30T00:19:07;96422.13;;;22.37;nan
11198;BME280;5655;48.744;9.162;2022-08-30T00:21:32;96421.81;;;22.23;nan
11198;BME280;5655;48.744;9.162;2022-08-30T00:23:58;96426.41;;;22.26;nan
11198;BME280;5655;48.744;9.162;2022-08-30T00:26:23;96422.91;;;22.38;nan
11198;BME280;5655;48.744;9.162;2022-08-30T00:28:48;96425.75;;;22.22;nan
11198;BME280;5655;48.744;9.162;2022-08-30T00:31:14;96424.88;;;22.25;nan
11198;BME280;5655;48.744;9.162;2022-08-30T00:33:39;96427.16;;;22.26;nan
11198;BME280;5655;48.744;9.162;2022-08-30T00:36:04;96427.69;;;22.34;nan
11198;BME280;5655;48.744;9.162;2022-08-30T00:38:30;96427.91;;;22.27;nan
11198;BME280;5655;48.744;9.162;2022-08-30T00:40:55;96432.94;;;22.28;nan
11198;BME280;5655;48.744;9.162;2022-08-30T00:43:29;96419.44;;;22.12;nan
11198;BME280;5655;48.744;9.162;2022-08-30T00:45:55;96425.97;;;22.14;nan
11198;BME280;5655;48.744;9.162;2022-08-30T00:48:20;96424.41;;;22.13;nan
11198;BME280;5655;48.744;9.162;2022-08-30T00:50:50;96424.09;;;21.99;nan
11198;BME280;5655;48.744;9.162;2022-08-30T00:53:22;96419.84;;;22.10;nan
11198;BME280;5655;48.744;9.162;2022-08-30T00:55:48;96421.25;;;22.15;nan
11198;BME280;5655;48.744;9.162;2022-08-30T00:58:18;96422.56;;;21.98;nan
11198;BME280;5655;48.744;9.162;2022-08-30T01:00:48;96421.44;;;21.70;nan
11198;BME280;5655;48.744;9.162;2022-08-30T01:03:14;96417.50;;;21.84;nan
11198;BME280;5655;48.744;9.162;2022-08-30T01:05:40;96416.69;;;21.99;nan
11198;BME280;5655;48.744;9.162;2022-08-30T01:08:06;96426.59;;;22.06;nan
11198;BME280;5655;48.744;9.162;2022-08-30T01:10:33;96422.03;;;22.03;nan
11198;BME280;5655;48.744;9.162;2022-08-30T01:12:59;96425.53;;;22.03;nan
11198;BME280;5655;48.744;9.162;2022-08-30T01:15:25;96427.66;;;21.83;nan
11198;BME280;5655;48.744;9.162;2022-08-30T01:17:51;96425.34;;;21.69;nan
11198;BME280;5655;48.744;9.162;2022-08-30T01:20:20;96428.28;;;21.74;nan
11198;BME280;5655;48.744;9.162;2022-08-30T01:25:17;96425.13;;;21.63;nan
11198;BME280;5655;48.744;9.162;2022-08-30T01:27:46;96426.22;;;21.66;nan
11198;BME280;5655;48.744;9.162;2022-08-30T01:30:14;96421.31;;;21.61;nan
11198;BME280;5655;48.744;9.162;2022-08-30T01:32:44;96417.84;;;21.73;nan
11198;BME280;5655;48.744;9.162;2022-08-30T01:35:12;96427.31;;;21.68;nan
11198;BME280;5655;48.744;9.162;2022-08-30T01:37:38;96418.72;;;21.70;nan
11198;BME280;5655;48.744;9.162;2022-08-30T01:40:09;96421.09;;;21.68;nan
11198;BME280;5655;48.744;9.162;2022-08-30T01:42:34;96417.81;;;21.60;nan
11198;BME280;5655;48.744;9.162;2022-08-30T01:45:00;96427.59;;;21.58;nan
11198;BME280;5655;48.744;9.162;2022-08-30T01:47:25;96424.97;;;21.42;nan
11198;BME280;5655;48.744;9.162;2022-08-30T01:49:51;96423.44;;;21.41;nan
11198;BME280;5655;48.744;9.162;2022-08-30T01:52:18;96426.22;;;21.24;nan
11198;BME280;5655;48.744;9.162;2022-08-30T01:54:45;96424.31;;;21.38;nan
11198;BME280;5655;48.744;9.162;2022-08-30T01:57:14;96420.56;;;21.32;nan
11198;BME280;5655;48.744;9.162;2022-08-30T01:59:41;96424.72;;;21.36;nan
11198;BME280;5655;48.744;9.162;2022-08-30T02:02:15;96431.47;;;21.32;nan
11198;BME280;5655;48.744;9.162;2022-08-30T02:04:41;96423.97;;;21.36;nan
11198;BME280;5655;48.744;9.162;2022-08-30T02:07:07;96426.81;;;21.45;nan
11198;BME280;5655;48.744;9.162;2022-08-30T02:09:32;96428.44;;;21.42;nan
11198;BME280;5655;48.744;9.162;2022-08-30T02:11:58;96433.28;;;21.63;nan
11198;BME280;5655;48.744;9.162;2022-08-30T02:14:23;96434.31;;;21.41;nan
11198;BME280;5655;48.744;9.162;2022-08-30T02:16:48;96427.47;;;21.49;nan
11198;BME280;5655;48.744;9.162;2022-08-30T02:19:14;96430.91;;;21.24;nan
11198;BME280;5655;48.744;9.162;2022-08-30T02:21:39;96420.81;;;21.08;nan
11198;BME280;5655;48.744;9.162;2022-08-30T02:24:05;96415.69;;;21.10;nan
11198;BME280;5655;48.744;9.162;2022-08-30T02:26:30;96420.16;;;21.33;nan
11198;BME280;5655;48.744;9.162;2022-08-30T02:28:56;96414.47;;;21.27;nan
11198;BME280;5655;48.744;9.162;2022-08-30T02:31:22;96411.78;;;21.11;nan
11198;BME280;5655;48.744;9.162;2022-08-30T02:33:49;96412.66;;;21.50;nan
11198;BME280;5655;48.744;9.162;2022-08-30T02:36:16;96408.03;;;21.21;nan
11198;BME280;5655;48.744;9.162;2022-08-30T02:38:42;96414.56;;;21.24;nan
11198;BME280;5655;48.744;9.162;2022-08-30T02:41:07;96402.34;;;21.16;nan
11198;BME280;5655;48.744;9.162;2022-08-30T02:43:32;96403.28;;;21.09;nan
11198;BME280;5655;48.744;9.162;2022-08-30T02:45:58;96394.88;;;21.04;nan
11198;BME280;5655;48.744;9.162;2022-08-30T02:48:23;96395.50;;;20.95;nan
11198;BME280;5655;48.744;9.162;2022-08-30T02:50:51;96404.13;;;20.77;nan
11198;BME280;5655;48.744;9.162;2022-08-30T02:53:17;96413.19;;;20.87;nan
11198;BME280;5655;48.744;9.162;2022-08-30T02:55:45;96414.22;;;20.77;nan
11198;BME280;5655;48.744;9.162;2022-08-30T02:58:10;96398.25;;;20.63;nan
11198;BME280;5655;48.744;9.162;2022-08-30T03:00:37;96403.53;;;20.70;nan
11198;BME280;5655;48.744;9.162;2022-08-30T03:03:03;96388.25;;;20.60;nan
11198;BME280;5655;48.744;9.162;2022-08-30T03:05:31;96393.59;;;20.79;nan
11198;BME280;5655;48.744;9.162;2022-08-30T03:07:58;96400.31;;;20.75;nan
11198;BME280;5655;48.744;9.162;2022-08-30T03:10:25;96402.34;;;20.71;nan
11198;BME280;5655;48.744;9.162;2022-08-30T03:12:52;96389.69;;;20.64;nan
11198;BME280;5655;48.744;9.162;2022-08-30T03:15:18;96392.34;;;20.52;nan
11198;BME280;5655;48.744;9.162;2022-08-30T03:17:44;96392.16;;;20.59;nan
11198;BME280;5655;48.744;9.162;2022-08-30T03:20:10;96385.56;;;20.44;nan
11198;BME280;5655;48.744;9.162;2022-08-30T03:22:36;96383.66;;;20.57;nan
11198;BME280;5655;48.744;9.162;2022-08-30T03:25:02;96379.06;;;20.54;nan
11198;BME280;5655;48.744;9.162;2022-08-30T03:27:28;96383.31;;;20.55;nan
11198;BME280;5655;48.744;9.162;2022-08-30T03:29:54;96383.91;;;20.62;nan
11198;BME280;5655;48.744;9.162;2022-08-30T03:32:20;96384.31;;;20.77;nan
11198;BME280;5655;48.744;9.162;2022-08-30T03:34:46;96385.47;;;20.92;nan
11198;BME280;5655;48.744;9.162;2022-08-30T03:37:11;96385.09;;;20.61;nan
11198;BME280;5655;48.744;9.162;2022-08-30T03:39:37;96380.19;;;20.40;nan
11198;BME280;5655;48.744;9.162;2022-08-30T03:42:02;96376.53;;;20.47;nan
11198;BME280;5655;48.744;9.162;2022-08-30T03:44:28;96381.78;;;20.54;nan
11198;BME280;5655;48.744;9.162;2022-08-30T03:46:53;96377.22;;;20.34;nan
11198;BME280;5655;48.744;9.162;2022-08-30T03:49:19;96380.44;;;20.29;nan
11198;BME280;5655;48.744;9.162;2022-08-30T03:51:45;96387.44;;;20.30;nan
11198;BME280;5655;48.744;9.162;2022-08-30T03:54:10;96379.66;;;20.29;nan
11198;BME280;5655;48.744;9.162;2022-08-30T03:56:36;96378.56;;;20.26;nan
11198;BME280;5655;48.744;9.162;2022-08-30T03:59:02;96384.31;;;20.28;nan
11198;BME280;5655;48.744;9.162;2022-08-30T04:01:27;96385.03;;;20.32;nan
11198;BME280;5655;48.744;9.162;2022-08-30T04:03:52;96385.03;;;20.49;nan
11198;BME280;5655;48.744;9.162;2022-08-30T04:06:18;96381.31;;;20.71;nan
11198;BME280;5655;48.744;9.162;2022-08-30T04:08:43;96380.78;;;20.48;nan
11198;BME280;5655;48.744;9.162;2022-08-30T04:11:10;96384.50;;;20.05;nan
11198;BME280;5655;48.744;9.162;2022-08-30T04:13:36;96383.75;;;20.21;nan
11198;BME280;5655;48.744;9.162;2022-08-30T04:16:02;96386.38;;;20.08;nan
11198;BME280;5655;48.744;9.162;2022-08-30T04:18:27;96392.41;;;20.16;nan
11198;BME280;5655;48.744;9.162;2022-08-30T04:20:53;96389.94;;;20.21;nan
11198;BME280;5655;48.744;9.162;2022-08-30T04:23:19;96400.81;;;20.21;nan
11198;BME280;5655;48.744;9.162;2022-08-30T04:25:44;96402.16;;;20.13;nan
11198;BME280;5655;48.744;9.162;2022-08-30T04:28:10;96398.78;;;20.09;nan
11198;BME280;5655;48.744;9.162;2022-08-30T04:30:43;96398.78;;;20.09;nan
11198;BME280;5655;48.744;9.162;2022-08-30T04:33:09;96395.41;;;19.85;nan
11198;BME280;5655;48.744;9.162;2022-08-30T04:35:35;96394.91;;;19.74;nan
11198;BME280;5655;48.744;9.162;2022-08-30T04:38:02;96405.94;;;19.83;nan
11198;BME280;5655;48.744;9.162;2022-08-30T04:40:27;96403.38;;;19.76;nan
11198;BME280;5655;48.744;9.162;2022-08-30T04:42:52;96402.28;;;19.74;nan
11198;BME280;5655;48.744;9.162;2022-08-30T04:45:19;96411.06;;;19.62;nan
11198;BME280;5655;48.744;9.162;2022-08-30T04:47:46;96407.69;;;19.58;nan
11198;BME280;5655;48.744;9.162;2022-08-30T04:50:15;96418.47;;;19.97;nan
11198;BME280;5655;48.744;9.162;2022-08-30T04:52:41;96414.88;;;19.84;nan
11198;BME280;5655;48.744;9.162;2022-08-30T04:55:07;96423.50;;;19.79;nan
11198;BME280;5655;48.744;9.162;2022-08-30T04:57:33;96423.81;;;19.65;nan
11198;BME280;5655;48.744;9.162;2022-08-30T04:59:59;96430.50;;;19.60;nan
11198;BME280;5655;48.744;9.162;2022-08-30T05:02:24;96430.13;;;19.38;nan
11198;BME280;5655;48.744;9.162;2022-08-30T05:04:49;96435.94;;;19.40;nan
11198;BME280;5655;48.744;9.162;2022-08-30T05:07:54;96450.50;;;19.50;nan
11198;BME280;5655;48.744;9.162;2022-08-30T05:10:20;96445.69;;;19.58;nan
11198;BME280;5655;48.744;9.162;2022-08-30T05:12:45;96447.97;;;19.59;nan
11198;BME280;5655;48.744;9.162;2022-08-30T05:15:11;96454.94;;;19.80;nan
11198;BME280;5655;48.744;9.162;2022-08-30T05:17:38;96456.13;;;19.79;nan
11198;BME280;5655;48.744;9.162;2022-08-30T05:20:05;96448.75;;;19.60;nan
11198;BME280;5655;48.744;9.162;2022-08-30T05:22:31;96459.47;;;19.67;nan
11198;BME280;5655;48.744;9.162;2022-08-30T05:24:56;96453.88;;;19.74;nan
11198;BME280;5655;48.744;9.162;2022-08-30T05:27:21;96464.91;;;19.67;nan
11198;BME280;5655;48.744;9.162;2022-08-30T05:29:47;96460.00;;;19.78;nan
11198;BME280;5655;48.744;9.162;2022-08-30T05:32:12;96455.97;;;20.02;nan
11198;BME280;5655;48.744;9.162;2022-08-30T05:34:37;96454.28;;;19.92;nan
11198;BME280;5655;48.744;9.162;2022-08-30T05:37:03;96450.22;;;20.00;nan
11198;BME280;5655;48.744;9.162;2022-08-30T05:39:28;96452.28;;;20.12;nan
11198;BME280;5655;48.744;9.162;2022-08-30T05:41:57;96447.16;;;20.34;nan
11198;BME280;5655;48.744;9.162;2022-08-30T05:44:23;96448.78;;;20.31;nan
11198;BME280;5655;48.744;9.162;2022-08-30T05:46:49;96454.00;;;20.22;nan
11198;BME280;5655;48.744;9.162;2022-08-30T05:49:14;96448.19;;;20.20;nan
11198;BME280;5655;48.744;9.162;2022-08-30T05:51:40;96443.66;;;20.33;nan
11198;BME280;5655;48.744;9.162;2022-08-30T05:54:05;96442.00;;;20.20;nan
11198;BME280;5655;48.744;9.162;2022-08-30T05:56:34;96437.72;;;20.38;nan
11198;BME280;5655;48.744;9.162;2022-08-30T05:59:00;96445.84;;;20.22;nan
11198;BME280;5655;48.744;9.162;2022-08-30T06:01:35;96448.59;;;20.38;nan
11198;BME280;5655;48.744;9.162;2022-08-30T06:04:02;96445.34;;;20.27;nan
11198;BME280;5655;48.744;9.162;2022-08-30T06:06:30;96460.50;;;20.45;nan
11198;BME280;5655;48.744;9.162;2022-08-30T06:08:56;96458.09;;;20.30;nan
11198;BME280;5655;48.744;9.162;2022-08-30T06:11:23;96463.53;;;20.63;nan
11198;BME280;5655;48.744;9.162;2022-08-30T06:13:50;96461.06;;;20.84;nan
11198;BME280;5655;48.744;9.162;2022-08-30T06:16:18;96461.75;;;20.72;nan
11198;BME280;5655;48.744;9.162;2022-08-30T06:18:45;96462.00;;;20.94;nan
11198;BME280;5655;48.744;9.162;2022-08-30T06:21:19;96462.66;;;20.98;nan
11198;BME280;5655;48.744;9.162;2022-08-30T06:23:45;96461.53;;;21.12;nan
11198;BME280;5655;48.744;9.162;2022-08-30T06:26:11;96467.63;;;20.71;nan
11198;BME280;5655;48.744;9.162;2022-08-30T06:28:37;96473.50;;;20.69;nan
11198;BME280;5655;48.744;9.162;2022-08-30T06:31:06;96463.97;;;21.39;nan
11198;BME280;5655;48.744;9.162;2022-08-30T06:33:32;96459.13;;;21.30;nan
11198;BME280;5655;48.744;9.162;2022-08-30T06:36:06;96457.25;;;21.56;nan
11198;BME280;5655;48.744;9.162;2022-08-30T06:38:32;96451.00;;;21.43;nan
11198;BME280;5655;48.744;9.162;2022-08-30T06:40:58;96444.28;;;21.47;nan
11198;BME280;5655;48.744;9.162;2022-08-30T06:43:23;96454.56;;;21.68;nan
11198;BME280;5655;48.744;9.162;2022-08-30T06:45:48;96457.41;;;21.65;nan
11198;BME280;5655;48.744;9.162;2022-08-30T06:48:14;96452.78;;;21.62;nan
11198;BME280;5655;48.744;9.162;2022-08-30T06:50:39;96455.91;;;21.89;nan
11198;BME280;5655;48.744;9.162;2022-08-30T06:53:07;96451.25;;;22.15;nan
11198;BME280;5655;48.744;9.162;2022-08-30T06:55:32;96453.56;;;22.29;nan
11198;BME280;5655;48.744;9.162;2022-08-30T06:57:59;96453.31;;;22.49;nan
11198;BME280;5655;48.744;9.162;2022-08-30T07:00:25;96439.69;;;22.36;nan
11198;BME280;5655;48.744;9.162;2022-08-30T07:02:50;96441.22;;;22.37;nan
11198;BME280;5655;48.744;9.162;2022-08-30T07:05:17;96443.59;;;22.48;nan
11198;BME280;5655;48.744;9.162;2022-08-30T07:07:46;96451.72;;;22.39;nan
11198;BME280;5655;48.744;9.162;2022-08-30T07:10:11;96454.53;;;22.73;nan
11198;BME280;5655;48.744;9.162;2022-08-30T07:12:38;96446.97;;;22.65;nan
11198;BME280;5655;48.744;9.162;2022-08-30T07:15:04;96456.59;;;22.69;nan
11198;BME280;5655;48.744;9.162;2022-08-30T07:17:29;96453.22;;;23.12;nan
11198;BME280;5655;48.744;9.162;2022-08-30T07:20:13;96454.06;;;23.09;nan
11198;BME280;5655;48.744;9.162;2022-08-30T07:22:39;96458.72;;;22.99;nan
11198;BME280;5655;48.744;9.162;2022-08-30T07:25:04;96459.97;;;22.48;nan
11198;BME280;5655;48.744;9.162;2022-08-30T07:27:30;96458.84;;;22.83;nan
11198;BME280;5655;48.744;9.162;2022-08-30T07:29:55;96462.03;;;22.56;nan
11198;BME280;5655;48.744;9.162;2022-08-30T07:32:22;96465.06;;;22.84;nan
11198;BME280;5655;48.744;9.162;2022-08-30T07:34:48;96467.94;;;23.15;nan
11198;BME280;5655;48.744;9.162;2022-08-30T07:37:13;96463.41;;;23.33;nan
11198;BME280;5655;48.744;9.162;2022-08-30T07:39:39;96462.53;;;23.58;nan
11198;BME280;5655;48.744;9.162;2022-08-30T07:42:04;96459.59;;;23.74;nan
11198;BME280;5655;48.744;9.162;2022-08-30T07:44:30;96460.34;;;23.75;nan
11198;BME280;5655;48.744;9.162;2022-08-30T07:46:56;96458.09;;;24.04;nan
11198;BME280;5655;48.744;9.162;2022-08-30T07:49:21;96457.94;;;24.08;nan
11198;BME280;5655;48.744;9.162;2022-08-30T07:51:47;96450.16;;;23.97;nan
11198;BME280;5655;48.744;9.162;2022-08-30T07:54:12;96459.25;;;24.25;nan
11198;BME280;5655;48.744;9.162;2022-08-30T07:56:38;96458.78;;;24.17;nan
11198;BME280;5655;48.744;9.162;2022-08-30T07:59:04;96455.09;;;24.11;nan
11198;BME280;5655;48.744;9.162;2022-08-30T08:01:29;96454.72;;;24.00;nan
11198;BME280;5655;48.744;9.162;2022-08-30T08:03:55;96454.28;;;24.02;nan
11198;BME280;5655;48.744;9.162;2022-08-30T08:06:21;96450.66;;;24.35;nan
11198;BME280;5655;48.744;9.162;2022-08-30T08:08:48;96448.78;;;24.81;nan
11198;BME280;5655;48.744;9.162;2022-08-30T08:11:15;96450.22;;;24.95;nan
11198;BME280;5655;48.744;9.162;2022-08-30T08:13:42;96456.22;;;24.81;nan
11198;BME280;5655;48.744;9.162;2022-08-30T08:16:08;96458.81;;;24.75;nan
11198;BME280;5655;48.744;9.162;2022-08-30T08:18:33;96455.53;;;24.99;nan
11198;BME280;5655;48.744;9.162;2022-08-30T08:20:59;96456.59;;;25.28;nan
11198;BME280;5655;48.744;9.162;2022-08-30T08:23:25;96461.19;;;25.32;nan
11198;BME280;5655;48.744;9.162;2022-08-30T08:25:51;96457.53;;;25.44;nan
11198;BME280;5655;48.744;9.162;2022-08-30T08:28:16;96462.56;;;25.36;nan
11198;BME280;5655;48.744;9.162;2022-08-30T08:30:42;96458.00;;;25.06;nan
11198;BME280;5655;48.744;9.162;2022-08-30T08:33:07;96463.00;;;25.25;nan
11198;BME280;5655;48.744;9.162;2022-08-30T08:35:33;96453.72;;;25.59;nan
11198;BME280;5655;48.744;9.162;2022-08-30T08:37:59;96452.00;;;25.89;nan
11198;BME280;5655;48.744;9.162;2022-08-30T08:40:25;96453.31;;;26.03;nan
11198;BME280;5655;48.744;9.162;2022-08-30T08:43:02;96443.81;;;26.31;nan
11198;BME280;5655;48.744;9.162;2022-08-30T08:45:41;96447.53;;;26.10;nan
11198;BME280;5655;48.744;9.162;2022-08-30T08:50:46;96446.44;;;26.49;nan
11198;BME280;5655;48.744;9.162;2022-08-30T08:53:35;96444.06;;;26.42;nan
11198;BME280;5655;48.744;9.162;2022-08-30T08:56:08;96452.16;;;26.70;nan
11198;BME280;5655;48.744;9.162;2022-08-30T08:58:44;96451.97;;;26.73;nan
11198;BME280;5655;48.744;9.162;2022-08-30T09:01:11;96446.03;;;26.75;nan
11198;BME280;5655;48.744;9.162;2022-08-30T09:03:37;96453.81;;;27.00;nan
11198;BME280;5655;48.744;9.162;2022-08-30T09:06:18;96451.88;;;27.15;nan
11198;BME280;5655;48.744;9.162;2022-08-30T09:08:45;96455.84;;;27.14;nan
11198;BME280;5655;48.744;9.162;2022-08-30T09:11:18;96447.00;;;27.10;nan
11198;BME280;5655;48.744;9.162;2022-08-30T09:13:44;96439.94;;;27.18;nan
11198;BME280;5655;48.744;9.162;2022-08-30T09:19:10;96437.56;;;27.49;nan
11198;BME280;5655;48.744;9.162;2022-08-30T09:21:36;96433.69;;;27.32;nan
11198;BME280;5655;48.744;9.162;2022-08-30T09:24:03;96438.47;;;27.46;nan
11198;BME280;5655;48.744;9.162;2022-08-30T09:26:36;96433.31;;;27.63;nan
11198;BME280;5655;48.744;9.162;2022-08-30T09:29:02;96427.84;;;27.39;nan
11198;BME280;5655;48.744;9.162;2022-08-30T09:31:45;96428.25;;;27.62;nan
11198;BME280;5655;48.744;9.162;2022-08-30T09:34:20;96422.00;;;28.20;nan
11198;BME280;5655;48.744;9.162;2022-08-30T09:36:51;96420.00;;;28.55;nan
11198;BME280;5655;48.744;9.162;2022-08-30T09:39:29;96420.06;;;28.40;nan
11198;BME280;5655;48.744;9.162;2022-08-30T09:42:13;96426.13;;;28.45;nan
11198;BME280;5655;48.744;9.162;2022-08-30T09:44:39;96409.56;;;28.24;nan
11198;BME280;5655;48.744;9.162;2022-08-30T09:47:31;96410.44;;;28.85;nan
11198;BME280;5655;48.744;9.162;2022-08-30T09:50:23;96408.25;;;28.95;nan
11198;BME280;5655;48.744;9.162;2022-08-30T09:55:46;96400.22;;;29.12;nan
11198;BME280;5655;48.744;9.162;2022-08-30T09:58:38;96404.84;;;29.26;nan
11198;BME280;5655;48.744;9.162;2022-08-30T10:01:44;96403.88;;;29.03;nan
11198;BME280;5655;48.744;9.162;2022-08-30T10:04:18;96403.81;;;28.77;nan
11198;BME280;5655;48.744;9.162;2022-08-30T10:12:39;96395.25;;;29.16;nan
11198;BME280;5655;48.744;9.162;2022-08-30T10:14:45;96396.69;;;29.32;nan
11198;BME280;5655;48.744;9.162;2022-08-30T10:22:27;96384.59;;;30.12;nan
11198;BME280;5655;48.744;9.162;2022-08-30T10:25:09;96375.25;;;29.98;nan
11198;BME280;5655;48.744;9.162;2022-08-30T10:27:41;96369.25;;;30.05;nan
11198;BME280;5655;48.744;9.162;2022-08-30T10:30:13;96373.94;;;30.31;nan
11198;BME280;5655;48.744;9.162;2022-08-30T10:33:00;96369.25;;;30.05;nan
11198;BME280;5655;48.744;9.162;2022-08-30T10:35:33;96369.56;;;30.13;nan
11198;BME280;5655;48.744;9.162;2022-08-30T10:38:09;96370.41;;;30.67;nan
11198;BME280;5655;48.744;9.162;2022-08-30T10:40:39;96366.69;;;30.39;nan
11198;BME280;5655;48.744;9.162;2022-08-30T10:46:29;96368.41;;;30.68;nan
11198;BME280;5655;48.744;9.162;2022-08-30T10:49:01;96369.75;;;30.94;nan
11198;BME280;5655;48.744;9.162;2022-08-30T10:51:32;96371.16;;;30.73;nan
11198;BME280;5655;48.744;9.162;2022-08-30T10:54:08;96362.88;;;30.73;nan
11198;BME280;5655;48.744;9.162;2022-08-30T10:56:38;96366.63;;;30.70;nan
11198;BME280;5655;48.744;9.162;2022-08-30T10:59:05;96376.78;;;30.95;nan
11198;BME280;5655;48.744;9.162;2022-08-30T11:07:09;96363.41;;;31.64;nan
11198;BME280;5655;48.744;9.162;2022-08-30T11:15:52;96371.09;;;31.10;nan
11198;BME280;5655;48.744;9.162;2022-08-30T11:18:19;96357.25;;;31.04;nan
11198;BME280;5655;48.744;9.162;2022-08-30T11:20:51;96361.88;;;31.63;nan
11198;BME280;5655;48.744;9.162;2022-08-30T11:33:53;96361.13;;;31.96;nan
11198;BME280;5655;48.744;9.162;2022-08-30T11:41:46;96365.09;;;31.34;nan
11198;BME280;5655;48.744;9.162;2022-08-30T11:44:32;96367.50;;;30.98;nan
11198;BME280;5655;48.744;9.162;2022-08-30T11:46:59;96364.84;;;30.61;nan
11198;BME280;5655;48.744;9.162;2022-08-30T11:52:33;96357.78;;;30.60;nan
11198;BME280;5655;48.744;9.162;2022-08-30T11:55:21;96365.44;;;30.82;nan
11198;BME280;5655;48.744;9.162;2022-08-30T12:03:42;96355.25;;;30.51;nan
11198;BME280;5655;48.744;9.162;2022-08-30T12:06:10;96352.31;;;30.66;nan
11198;BME280;5655;48.744;9.162;2022-08-30T12:08:45;96360.63;;;30.72;nan
11198;BME280;5655;48.744;9.162;2022-08-30T12:16:20;96354.94;;;30.97;nan
11198;BME280;5655;48.744;9.162;2022-08-30T12:18:55;96352.50;;;31.33;nan
11198;BME280;5655;48.744;9.162;2022-08-30T12:21:30;96353.50;;;31.13;nan
11198;BME280;5655;48.744;9.162;2022-08-30T12:28:52;96352.00;;;31.18;nan
11198;BME280;5655;48.744;9.162;2022-08-30T12:31:21;96345.19;;;31.07;nan
11198;BME280;5655;48.744;9.162;2022-08-30T12:33:53;96341.28;;;30.72;nan
11198;BME280;5655;48.744;9.162;2022-08-30T12:39:38;96341.16;;;31.08;nan
11198;BME280;5655;48.744;9.162;2022-08-30T12:44:42;96336.75;;;31.61;nan
11198;BME280;5655;48.744;9.162;2022-08-30T12:47:10;96334.97;;;31.75;nan
11198;BME280;5655;48.744;9.162;2022-08-30T12:49:38;96344.28;;;31.55;nan
11198;BME280;5655;48.744;9.162;2022-08-30T12:58:09;96328.69;;;31.69;nan
11198;BME280;5655;48.744;9.162;2022-08-30T13:05:53;96319.63;;;31.79;nan
11198;BME280;5655;48.744;9.162;2022-08-30T13:08:20;96308.53;;;31.90;nan
11198;BME280;5655;48.744;9.162;2022-08-30T13:10:54;96302.09;;;32.57;nan
11198;BME280;5655;48.744;9.162;2022-08-30T13:18:43;96296.84;;;32.36;nan
11198;BME280;5655;48.744;9.162;2022-08-30T13:24:02;96288.09;;;32.21;nan
11198;BME280;5655;48.744;9.162;2022-08-30T13:26:36;96282.63;;;32.73;nan
11198;BME280;5655;48.744;9.162;2022-08-30T13:29:04;96284.13;;;32.74;nan
11198;BME280;5655;48.744;9.162;2022-08-30T13:31:31;96282.78;;;32.29;nan
11198;BME280;5655;48.744;9.162;2022-08-30T13:33:57;96278.41;;;32.50;nan
11198;BME280;5655;48.744;9.162;2022-08-30T13:36:32;96272.16;;;32.44;nan
11198;BME280;5655;48.744;9.162;2022-08-30T13:38:58;96267.69;;;32.19;nan
11198;BME280;5655;48.744;9.162;2022-08-30T13:41:25;96269.75;;;31.90;nan
11198;BME280;5655;48.744;9.162;2022-08-30T13:43:50;96268.56;;;31.58;nan
11198;BME280;5655;48.744;9.162;2022-08-30T13:46:17;96260.91;;;31.97;nan
11198;BME280;5655;48.744;9.162;2022-08-30T13:48:44;96274.81;;;31.53;nan
11198;BME280;5655;48.744;9.162;2022-08-30T13:51:09;96265.25;;;31.76;nan
11198;BME280;5655;48.744;9.162;2022-08-30T13:53:35;96261.50;;;31.24;nan
11198;BME280;5655;48.744;9.162;2022-08-30T13:56:04;96256.94;;;31.43;nan
11198;BME280;5655;48.744;9.162;2022-08-30T13:58:30;96256.94;;;31.37;nan
11198;BME280;5655;48.744;9.162;2022-08-30T14:00:57;96253.16;;;31.46;nan
11198;BME280;5655;48.744;9.162;2022-08-30T14:03:22;96242.84;;;31.46;nan
11198;BME280;5655;48.744;9.162;2022-08-30T14:05:48;96242.63;;;31.17;nan
11198;BME280;5655;48.744;9.162;2022-08-30T14:08:20;96249.91;;;31.31;nan
11198;BME280;5655;48.744;9.162;2022-08-30T14:10:46;96244.88;;;31.46;nan
11198;BME280;5655;48.744;9.162;2022-08-30T14:13:11;96240.84;;;31.08;nan
11198;BME280;5655;48.744;9.162;2022-08-30T14:15:37;96236.09;;;31.31;nan
11198;BME280;5655;48.744;9.162;2022-08-30T14:18:04;96238.84;;;31.42;nan
11198;BME280;5655;48.744;9.162;2022-08-30T14:20:30;96232.56;;;31.14;nan
11198;BME280;5655;48.744;9.162;2022-08-30T14:22:55;96239.84;;;31.00;nan
11198;BME280;5655;48.744;9.162;2022-08-30T14:25:21;96234.06;;;31.03;nan
11198;BME280;5655;48.744;9.162;2022-08-30T14:27:46;96230.03;;;31.04;nan
11198;BME280;5655;48.744;9.162;2022-08-30T14:30:12;96225.72;;;30.87;nan
11198;BME280;5655;48.744;9.162;2022-08-30T14:32:37;96231.00;;;30.85;nan
11198;BME280;5655;48.744;9.162;2022-08-30T14:35:03;96231.19;;;30.64;nan
11198;BME280;5655;48.744;9.162;2022-08-30T14:37:28;96228.97;;;30.85;nan
11198;BME280;5655;48.744;9.162;2022-08-30T14:39:54;96220.16;;;30.81;nan
11198;BME280;5655;48.744;9.162;2022-08-30T14:42:19;96227.22;;;30.99;nan
11198;BME280;5655;48.744;9.162;2022-08-30T14:44:45;96227.28;;;31.27;nan
11198;BME280;5655;48.744;9.162;2022-08-30T14:47:10;96230.00;;;30.93;nan
11198;BME280;5655;48.744;9.162;2022-08-30T14:49:35;96219.94;;;30.90;nan
11198;BME280;5655;48.744;9.162;2022-08-30T14:52:01;96222.19;;;30.75;nan
11198;BME280;5655;48.744;9.162;2022-08-30T14:54:28;96224.66;;;30.56;nan
11198;BME280;5655;48.744;9.162;2022-08-30T14:56:54;96213.34;;;30.49;nan
11198;BME280;5655;48.744;9.162;2022-08-30T14:59:20;96213.16;;;30.80;nan
11198;BME280;5655;48.744;9.162;2022-08-30T15:01:46;96225.47;;;30.79;nan
11198;BME280;5655;48.744;9.162;2022-08-30T15:04:12;96221.69;;;30.99;nan
11198;BME280;5655;48.744;9.162;2022-08-30T15:06:39;96221.16;;;30.67;nan
11198;BME280;5655;48.744;9.162;2022-08-30T15:09:08;96216.13;;;30.77;nan
11198;BME280;5655;48.744;9.162;2022-08-30T15:11:36;96206.34;;;30.70;nan
11198;BME280;5655;48.744;9.162;2022-08-30T15:14:02;96215.13;;;30.69;nan